createdAt,value
2022-08-31T00:02:18.066Z,15.933228
2022-08-31T00:05:43.246Z,15.96344
2022-08-31T00:09:08.486Z,15.943298
2022-08-31T00:12:33.680Z,15.933228
2022-08-31T00:15:58.919Z,15.903015
2022-08-31T00:19:24.174Z,15.892944
2022-08-31T00:22:49.401Z,15.84259
2022-08-31T00:26:14.623Z,15.802307
2022-08-31T00:29:39.852Z,15.782166
2022-08-31T00:33:05.055Z,15.751953
2022-08-31T00:36:30.318Z,15.751953
2022-08-31T00:39:55.539Z,15.762024
2022-08-31T00:43:20.754Z,15.741882
2022-08-31T00:46:45.964Z,15.71167
2022-08-31T00:50:11.194Z,15.691528
2022-08-31T00:53:36.402Z,15.691528
2022-08-31T00:57:01.602Z,15.71167
2022-08-31T01:00:26.813Z,15.691528
2022-08-31T01:03:52.068Z,15.671387
2022-08-31T01:07:17.304Z,15.651245
2022-08-31T01:10:42.511Z,15.641174
2022-08-31T01:14:07.713Z,15.600891
2022-08-31T01:17:32.924Z,15.59082
2022-08-31T01:20:58.137Z,15.600891
2022-08-31T01:24:23.341Z,15.621033
2022-08-31T01:27:48.565Z,15.621033
2022-08-31T01:31:13.814Z,15.621033
2022-08-31T01:34:38.985Z,15.570679
2022-08-31T01:38:04.569Z,15.510254
2022-08-31T01:41:29.445Z,15.4599
2022-08-31T01:44:54.646Z,15.389404
2022-08-31T01:48:19.850Z,15.379333
2022-08-31T01:51:45.072Z,15.349121
2022-08-31T01:55:10.257Z,15.349121
2022-08-31T01:58:35.479Z,15.318909
2022-08-31T02:02:00.852Z,15.318909
2022-08-31T02:05:25.927Z,15.318909
2022-08-31T02:08:51.152Z,15.33905
2022-08-31T02:12:16.383Z,15.318909
2022-08-31T02:15:41.583Z,15.248413
2022-08-31T02:19:06.840Z,15.167847
2022-08-31T02:22:32.033Z,15.137634
2022-08-31T02:25:57.249Z,15.057068
2022-08-31T02:29:22.498Z,15.097351
2022-08-31T02:32:47.695Z,15.127563
2022-08-31T02:36:12.883Z,15.157776
2022-08-31T02:39:38.116Z,15.137634
2022-08-31T02:43:03.330Z,15.097351
2022-08-31T02:46:28.552Z,15.08728
2022-08-31T02:49:53.771Z,15.097351
2022-08-31T02:53:19.079Z,15.08728
2022-08-31T02:56:44.172Z,15.08728
2022-08-31T03:00:09.369Z,15.067139
2022-08-31T03:03:34.591Z,14.986572
2022-08-31T03:06:59.843Z,14.946289
2022-08-31T03:10:25.049Z,14.946289
2022-08-31T03:13:50.277Z,14.936218
2022-08-31T03:17:15.500Z,14.885864
2022-08-31T03:20:40.736Z,14.906006
2022-08-31T03:24:05.949Z,14.916077
2022-08-31T03:27:31.155Z,14.936218
2022-08-31T03:30:56.433Z,14.916077
2022-08-31T03:34:21.634Z,14.906006
2022-08-31T03:37:46.858Z,14.906006
2022-08-31T03:41:12.119Z,14.906006
2022-08-31T03:44:37.350Z,14.885864
2022-08-31T03:48:02.582Z,14.906006
2022-08-31T03:51:27.799Z,14.916077
2022-08-31T03:54:53.007Z,14.916077
2022-08-31T03:58:18.203Z,14.936218
2022-08-31T04:01:43.507Z,14.946289
2022-08-31T04:05:08.659Z,14.916077
2022-08-31T04:08:33.888Z,14.906006
2022-08-31T04:11:59.075Z,14.936218
2022-08-31T04:15:24.295Z,14.885864
2022-08-31T04:18:49.504Z,14.875793
2022-08-31T04:22:14.732Z,14.885864
2022-08-31T04:25:40.011Z,14.906006
2022-08-31T04:29:06.849Z,14.916077
2022-08-31T04:32:30.436Z,14.885864
2022-08-31T04:35:55.697Z,14.875793
2022-08-31T04:39:20.900Z,14.875793
2022-08-31T04:42:46.077Z,14.875793
2022-08-31T04:46:11.370Z,14.885864
2022-08-31T04:49:36.402Z,14.83551
2022-08-31T04:53:03.598Z,14.825439
2022-08-31T04:56:26.817Z,14.795227
2022-08-31T04:59:52.049Z,14.795227
2022-08-31T05:03:17.382Z,14.765015
2022-08-31T05:06:42.547Z,14.765015
2022-08-31T05:10:07.731Z,14.724731
2022-08-31T05:13:32.943Z,14.734802
2022-08-31T05:16:58.133Z,14.765015
2022-08-31T05:20:23.313Z,14.775085
2022-08-31T05:23:48.476Z,14.805298
2022-08-31T05:27:13.653Z,14.875793
2022-08-31T05:30:38.884Z,14.875793
2022-08-31T05:34:04.014Z,14.855652
2022-08-31T05:37:29.201Z,14.83551
2022-08-31T05:40:54.360Z,14.83551
2022-08-31T05:44:19.526Z,14.795227
2022-08-31T05:47:44.703Z,14.825439
2022-08-31T05:51:11.325Z,14.825439
2022-08-31T05:54:35.037Z,14.825439
2022-08-31T05:58:00.205Z,14.83551
2022-08-31T06:01:25.420Z,14.83551
2022-08-31T06:04:51.025Z,14.754944
2022-08-31T06:08:15.744Z,14.684448
2022-08-31T06:11:40.912Z,14.613953
2022-08-31T06:15:06.099Z,14.553528
2022-08-31T06:18:31.295Z,14.573669
2022-08-31T06:21:56.483Z,14.613953
2022-08-31T06:25:21.658Z,14.694519
2022-08-31T06:28:46.832Z,14.70459
2022-08-31T06:32:12.007Z,14.734802
2022-08-31T06:35:37.210Z,14.734802
2022-08-31T06:39:02.382Z,14.775085
2022-08-31T06:42:27.561Z,14.825439
2022-08-31T06:45:52.755Z,14.83551
2022-08-31T06:49:17.891Z,14.906006
2022-08-31T06:52:43.111Z,14.946289
2022-08-31T06:56:14.199Z,15.016785
2022-08-31T06:59:33.468Z,15.08728
2022-08-31T07:02:58.708Z,15.167847
2022-08-31T07:06:23.886Z,15.187988
2022-08-31T07:09:49.088Z,15.248413
2022-08-31T07:13:14.360Z,15.33905
2022-08-31T07:16:39.525Z,15.389404
2022-08-31T07:20:04.668Z,15.379333
2022-08-31T07:23:29.837Z,15.469971
2022-08-31T07:26:55.025Z,15.510254
2022-08-31T07:30:20.217Z,15.530396
2022-08-31T07:33:45.392Z,15.530396
2022-08-31T07:37:10.561Z,15.510254
2022-08-31T07:40:35.792Z,15.530396
2022-08-31T07:44:00.936Z,15.510254
2022-08-31T07:47:26.134Z,15.510254
2022-08-31T07:50:51.323Z,15.560608
2022-08-31T07:54:16.500Z,15.560608
2022-08-31T07:57:41.699Z,15.641174
2022-08-31T08:01:07.644Z,15.59082
2022-08-31T08:04:32.805Z,15.510254
2022-08-31T08:07:57.986Z,15.429688
2022-08-31T08:11:23.159Z,15.4599
2022-08-31T08:14:48.340Z,15.500183
2022-08-31T08:18:13.540Z,15.540466
2022-08-31T08:21:38.720Z,15.570679
2022-08-31T08:25:03.906Z,15.59082
2022-08-31T08:28:39.003Z,15.681458
2022-08-31T08:31:55.453Z,15.691528
2022-08-31T08:35:19.519Z,15.782166
2022-08-31T08:38:44.693Z,15.822449
2022-08-31T08:42:09.893Z,15.872803
2022-08-31T08:45:35.160Z,15.923157
2022-08-31T08:49:00.307Z,15.923157
2022-08-31T08:52:25.501Z,15.933228
2022-08-31T08:55:50.679Z,15.973511
2022-08-31T08:59:19.210Z,16.003723
2022-08-31T09:02:41.069Z,15.933228
2022-08-31T09:06:06.207Z,15.923157
2022-08-31T09:09:31.380Z,15.943298
2022-08-31T09:12:56.557Z,15.923157
2022-08-31T09:16:21.825Z,15.892944
2022-08-31T09:19:46.927Z,15.872803
2022-08-31T09:23:12.092Z,15.822449
2022-08-31T09:26:37.272Z,15.83252
2022-08-31T09:30:02.444Z,15.83252
2022-08-31T09:33:27.618Z,15.83252
2022-08-31T09:36:52.783Z,15.84259
2022-08-31T09:40:19.607Z,15.892944
2022-08-31T09:43:43.168Z,15.83252
2022-08-31T09:47:08.355Z,15.903015
2022-08-31T09:50:33.526Z,16.023865
2022-08-31T09:53:58.682Z,16.174927
2022-08-31T09:57:23.866Z,16.235352
2022-08-31T10:00:49.048Z,16.275635
2022-08-31T10:04:14.224Z,16.34613
2022-08-31T10:07:39.418Z,16.426697
2022-08-31T10:11:04.609Z,16.527405
2022-08-31T10:14:29.787Z,16.527405
2022-08-31T10:17:54.992Z,16.577759
2022-08-31T10:21:20.163Z,16.607971
2022-08-31T10:24:45.327Z,16.668396
2022-08-31T10:28:10.520Z,16.759033
2022-08-31T10:31:35.775Z,16.728821
2022-08-31T10:35:00.910Z,16.748962
2022-08-31T10:38:26.117Z,16.759033
2022-08-31T10:41:51.469Z,16.748962
2022-08-31T10:45:18.726Z,16.759033
2022-08-31T10:48:41.840Z,16.728821
2022-08-31T10:52:07.036Z,16.779175
2022-08-31T10:55:32.222Z,16.759033
2022-08-31T10:58:57.375Z,16.809387
2022-08-31T11:02:22.552Z,16.829529
2022-08-31T11:05:50.720Z,16.819458
2022-08-31T11:09:13.026Z,16.829529
2022-08-31T11:12:38.110Z,16.889954
2022-08-31T11:16:03.349Z,17.000732
2022-08-31T11:19:28.496Z,17.030945
2022-08-31T11:22:53.732Z,17.111511
2022-08-31T11:26:18.920Z,17.182007
2022-08-31T11:29:44.123Z,17.192078
2022-08-31T11:33:09.284Z,17.262573
2022-08-31T11:36:34.450Z,17.34314
2022-08-31T11:39:59.673Z,17.383423
2022-08-31T11:43:24.899Z,17.373352
2022-08-31T11:46:50.104Z,17.373352
2022-08-31T11:50:15.282Z,17.333069
2022-08-31T11:53:40.464Z,17.333069
2022-08-31T11:57:05.674Z,17.383423
2022-08-31T12:00:30.876Z,17.433777
2022-08-31T12:03:56.055Z,17.494202
2022-08-31T12:07:21.268Z,17.524414
2022-08-31T12:10:46.478Z,17.544556
2022-08-31T12:14:11.791Z,17.554626
2022-08-31T12:17:36.988Z,17.564697
2022-08-31T12:21:02.208Z,17.544556
2022-08-31T12:24:27.385Z,17.584839
2022-08-31T12:27:52.559Z,17.615051
2022-08-31T12:31:17.881Z,17.615051
2022-08-31T12:34:42.984Z,17.554626
2022-08-31T12:38:08.186Z,17.564697
2022-08-31T12:41:33.361Z,17.59491
2022-08-31T12:44:58.550Z,17.564697
2022-08-31T12:48:23.753Z,17.554626
2022-08-31T12:51:49.049Z,17.584839
2022-08-31T12:55:14.251Z,17.59491
2022-08-31T12:58:39.416Z,17.554626
2022-08-31T13:02:04.702Z,17.544556
2022-08-31T13:05:29.823Z,17.584839
2022-08-31T13:08:55.015Z,17.59491
2022-08-31T13:12:20.171Z,17.675476
2022-08-31T13:15:45.363Z,17.675476
2022-08-31T13:19:10.564Z,17.695618
2022-08-31T13:22:35.759Z,17.59491
2022-08-31T13:26:00.943Z,17.564697
2022-08-31T13:29:26.149Z,17.59491
2022-08-31T13:32:51.336Z,17.554626
2022-08-31T13:36:16.527Z,17.544556
2022-08-31T13:39:41.725Z,17.484131
2022-08-31T13:43:06.951Z,17.443848
2022-08-31T13:46:42.212Z,17.463989
2022-08-31T13:49:57.459Z,17.494202
2022-08-31T13:53:26.556Z,17.484131
2022-08-31T13:56:47.814Z,17.514343
2022-08-31T14:00:13.016Z,17.494202
2022-08-31T14:03:38.215Z,17.463989
2022-08-31T14:07:03.434Z,17.383423
2022-08-31T14:10:28.676Z,17.373352
2022-08-31T14:13:53.853Z,17.413635
2022-08-31T14:17:19.155Z,17.433777
2022-08-31T14:21:03.912Z,17.463989
2022-08-31T14:24:09.457Z,17.484131
2022-08-31T14:27:34.664Z,17.514343
2022-08-31T15:04:15.777Z,17.494202
2022-08-31T15:07:40.955Z,17.443848
2022-08-31T15:11:06.163Z,17.443848
2022-08-31T15:14:31.331Z,17.373352
2022-08-31T15:17:56.529Z,17.312927
2022-08-31T15:21:21.715Z,17.34314
2022-08-31T15:24:46.914Z,17.34314
2022-08-31T15:28:12.198Z,17.333069
2022-08-31T15:31:37.353Z,17.333069
2022-08-31T15:35:02.460Z,17.302856
2022-08-31T15:38:27.663Z,17.312927
2022-08-31T15:41:52.846Z,17.333069
2022-08-31T15:45:18.058Z,17.312927
2022-08-31T15:48:43.242Z,17.302856
2022-08-31T15:52:08.710Z,17.333069
2022-08-31T15:55:34.362Z,17.312927
2022-08-31T15:59:00.007Z,17.363281
2022-08-31T16:02:25.685Z,17.333069
2022-08-31T16:05:51.252Z,17.282715
2022-08-31T16:09:16.870Z,17.262573
2022-08-31T16:12:42.528Z,17.22229
2022-08-31T16:16:08.210Z,17.252502
2022-08-31T16:19:35.892Z,17.232361
2022-08-31T16:23:00.180Z,17.232361
2022-08-31T16:26:25.814Z,17.161865
2022-08-31T16:29:51.437Z,17.141724
2022-08-31T16:33:17.069Z,17.151794
2022-08-31T16:36:42.669Z,17.182007
2022-08-31T16:40:08.371Z,17.192078
2022-08-31T16:43:33.947Z,17.182007
2022-08-31T16:46:59.620Z,17.141724
2022-08-31T16:50:25.233Z,17.081299
2022-08-31T16:53:50.839Z,17.121582
2022-08-31T16:57:16.470Z,17.061157
2022-08-31T17:00:42.087Z,17.061157
2022-08-31T17:04:07.686Z,17.071228
2022-08-31T17:07:33.305Z,17.061157
2022-08-31T17:10:58.929Z,17.061157
2022-08-31T17:14:24.972Z,17.061157
2022-08-31T17:17:50.606Z,17.030945
2022-08-31T17:21:16.224Z,17.030945
2022-08-31T17:24:41.849Z,17.030945
2022-08-31T17:28:07.899Z,17.030945
2022-08-31T17:31:33.186Z,17.010803
2022-08-31T17:34:58.779Z,17.000732
2022-08-31T17:38:28.283Z,16.97052
2022-08-31T17:41:54.718Z,16.940308
2022-08-31T17:45:20.309Z,16.960449
2022-08-31T17:48:45.930Z,16.940308
2022-08-31T17:52:11.518Z,16.889954
2022-08-31T17:55:37.118Z,16.889954
2022-08-31T17:59:02.729Z,16.859741
2022-08-31T18:02:28.387Z,16.84967
2022-08-31T18:05:53.986Z,16.829529
2022-08-31T18:09:19.590Z,16.819458
2022-08-31T18:12:45.215Z,16.809387
2022-08-31T18:16:10.879Z,16.789246
2022-08-31T18:19:36.463Z,16.748962
2022-08-31T18:23:02.088Z,16.748962
2022-08-31T18:26:27.753Z,16.698608
2022-08-31T18:29:53.366Z,16.678467
2022-08-31T18:33:19.030Z,16.638184
2022-08-31T18:36:44.686Z,16.628113
2022-08-31T18:40:10.382Z,16.577759
2022-08-31T18:43:36.018Z,16.607971
2022-08-31T18:47:01.748Z,16.567688
2022-08-31T18:50:27.310Z,16.497192
2022-08-31T18:53:52.923Z,16.487122
2022-08-31T18:57:18.559Z,16.456909
2022-08-31T19:00:44.283Z,16.446838
2022-08-31T19:04:09.762Z,16.426697
2022-08-31T19:07:35.358Z,16.386414
2022-08-31T19:11:00.973Z,16.376343
2022-08-31T19:14:26.552Z,16.34613
2022-08-31T19:17:52.143Z,16.33606
2022-08-31T19:21:17.751Z,16.325989
2022-08-31T19:24:43.366Z,16.305847
2022-08-31T19:28:08.988Z,16.275635
2022-08-31T19:31:34.620Z,16.245422
2022-08-31T19:35:00.207Z,16.205139
2022-08-31T19:38:25.821Z,16.195068
2022-08-31T19:41:51.433Z,16.124573
2022-08-31T19:45:24.535Z,16.124573
2022-08-31T19:48:44.260Z,16.144714
2022-08-31T19:52:08.272Z,16.154785
2022-08-31T19:55:33.856Z,16.174927
2022-08-31T19:58:59.467Z,16.154785
2022-08-31T20:02:25.197Z,16.154785
2022-08-31T20:05:50.731Z,16.144714
2022-08-31T20:09:16.373Z,16.074219
2022-08-31T20:12:41.990Z,16.054077
2022-08-31T20:16:07.679Z,16.054077
2022-08-31T20:19:36.846Z,16.08429
2022-08-31T20:22:58.810Z,16.054077
2022-08-31T20:26:26.138Z,16.074219
2022-08-31T20:29:50.054Z,16.044006
2022-08-31T20:33:15.698Z,16.044006
2022-08-31T20:36:41.279Z,16.013794
2022-08-31T20:40:06.942Z,16.023865
2022-08-31T20:43:32.617Z,16.013794
2022-08-31T20:46:57.901Z,16.044006
2022-08-31T20:50:23.058Z,16.003723
2022-08-31T20:53:50.972Z,15.973511
2022-08-31T20:57:16.153Z,15.973511
2022-08-31T21:00:41.300Z,15.923157
2022-08-31T21:04:06.479Z,15.933228
2022-08-31T21:07:31.694Z,15.923157
2022-08-31T21:10:56.861Z,15.862732
2022-08-31T21:14:22.030Z,15.872803
2022-08-31T21:17:47.208Z,15.83252
2022-08-31T21:21:12.389Z,15.802307
2022-08-31T21:24:37.568Z,15.83252
2022-08-31T21:28:02.755Z,15.822449
2022-08-31T21:31:29.096Z,15.802307
2022-08-31T21:34:53.105Z,15.782166
2022-08-31T21:38:18.413Z,15.762024
2022-08-31T21:41:43.448Z,15.751953
2022-08-31T21:45:08.618Z,15.71167
2022-08-31T21:48:33.788Z,15.721741
2022-08-31T21:51:58.966Z,15.691528
2022-08-31T21:55:24.150Z,15.641174
2022-08-31T21:58:49.375Z,15.651245
2022-08-31T22:02:14.545Z,15.621033
2022-08-31T22:05:39.715Z,15.570679
2022-08-31T22:09:04.872Z,15.570679
2022-08-31T22:12:30.043Z,15.570679
2022-08-31T22:15:55.260Z,15.540466
2022-08-31T22:19:20.369Z,15.530396
2022-08-31T22:22:46.905Z,15.500183
2022-08-31T22:26:10.719Z,15.469971
2022-08-31T22:29:35.906Z,15.439758
2022-08-31T22:33:01.074Z,15.439758
2022-08-31T22:36:30.922Z,15.409546
2022-08-31T22:39:51.430Z,15.359192
2022-08-31T22:43:16.589Z,15.349121
2022-08-31T22:46:41.786Z,15.308838
2022-08-31T22:50:06.912Z,15.288696
2022-08-31T22:53:32.105Z,15.308838
2022-08-31T22:56:57.296Z,15.308838
2022-08-31T23:00:22.448Z,15.308838
2022-08-31T23:03:47.664Z,15.288696
2022-08-31T23:07:12.802Z,15.167847
2022-08-31T23:10:37.978Z,15.08728
2022-08-31T23:14:07.213Z,15.057068
2022-08-31T23:17:28.322Z,15.08728
2022-08-31T23:20:53.490Z,15.097351
2022-08-31T23:24:18.665Z,15.107422
2022-08-31T23:27:43.859Z,15.097351
2022-08-31T23:31:09.068Z,15.097351
2022-08-31T23:34:34.175Z,15.107422
2022-08-31T23:37:59.352Z,15.097351
2022-08-31T23:41:26.039Z,15.127563
2022-08-31T23:44:49.763Z,15.067139
2022-08-31T23:48:14.919Z,15.057068
2022-08-31T23:51:40.086Z,15.016785
2022-08-31T23:55:05.285Z,15.067139
2022-08-31T23:58:30.465Z,15.057068
